Terminal Aerodrome Forecast
Issued by NWS

Home | Current Version | Previous Version | Text Only | Print | Product List | Glossary On
Versions: 1 2 3 4 5 6 7 8 9 10 11 12 13 14 15 16 17 18 19
142
FTUS46 KPDT 191741
TAFPSC
TAF
KPSC 191741Z 1918/2018 31005KT 1/4SM FG VV003
      TEMPO 1918/1920 3SM -SHRA BR SCT005 BKN009 OVC050
     FM192000 22009KT P6SM SCT050 BKN100
     FM200000 20006KT P6SM BKN070 OVC150
     FM201000 VRB04KT P6SM VCSH OVC050=

USA.gov is the U.S. government's official web portal to all federal, state and local government web resources and services.